Terminal Aerodrome Forecast
Issued by NWS

Home | Current Version | Previous Version | Text Only | Print | Product List | Glossary On
Versions: 1 2 3 4 5 6 7 8 9 10 11 12
000
FTUS45 KFGZ 200500
TAFPRC
TAF
KPRC 200523Z 2006/2106 20006KT P6SM SKC
     FM201800 VRB06KT P6SM SCT060 BKN090 PROB30 2019/2101 -TSRA
      BKN050CB
     FM210200 20008KT P6SM SCT090=

USA.gov is the U.S. government's official web portal to all federal, state and local government web resources and services.